APL Norway — A8NC4 — position and weather

sailwx.info

Track history (hours):
 
Tides and Currents Weather Stations Pressure Air Temp Water Temp Dewpoint Dewpoint Depression Visibility Wind Speed Wind Dir Waves Ship Positions

APL Norway

Last reported at 2014-Nov-19 15:15 UTC. Time now 2014-Nov-26 21:24 UTC.
Position N 34°33' W 121°20'.

Length 295 m; draft 12.9 m.

Type: Cargo ship. MMSI: 636013456.

Date/timePositionNaut miles runAvg speedWind from/ knotsBaromVisibWave heightAir tempDewpointWater temp
2014-Nov-19 15:15N 34°33' W 121°20'1216.7
2014-Nov-19 14:33N 34°30' W 121°06'1615.6
2014-Nov-19 13:33N 34°25' W 120°48'2713.0
2014-Nov-19 11:29N 34°18' W 120°17'910.1
2014-Nov-19 10:33N 34°16' W 120°06'1010.2
2014-Nov-19 09:34N 34°13' W 119°54'1010.2
2014-Nov-19 08:33N 34°10' W 119°42'1010.2
2014-Nov-19 07:34N 34°08' W 119°30'1010.1
2014-Nov-19 06:34N 34°05' W 119°18'1010.1
2014-Nov-19 05:34N 34°01' W 119°07'1010.0
2014-Nov-19 04:33N 33°55' W 118°57'1010.0
2014-Nov-19 03:34N 33°51' W 118°47'1211.8
2014-Nov-19 02:34N 33°45' W 118°34'1211.9
2014-Nov-19 01:34N 33°39' W 118°22'7 6.6
2014-Nov-19 00:34N 33°43' W 118°16'1 1.1
2014-Nov-18 23:32N 33°44' W 118°15'0 0.0
2014-Nov-18 22:32N 33°44' W 118°15'0 0.0
2014-Nov-18 21:32N 33°44' W 118°15'0 0.0
2014-Nov-18 20:32N 33°44' W 118°15'0 0.0
2014-Nov-18 19:32N 33°44' W 118°15'0 0.0
2014-Nov-18 18:32N 33°44' W 118°15'0 0.0
2014-Nov-18 17:32N 33°44' W 118°15'0 0.0
2014-Nov-18 16:32N 33°44' W 118°15'0 0.0
2014-Nov-18 15:32N 33°44' W 118°15'0 0.0
2014-Nov-18 14:32N 33°44' W 118°15'0 0.0
2014-Nov-18 13:32N 33°44' W 118°15'0 0.0
2014-Nov-18 12:32N 33°44' W 118°15'0 0.0
2014-Nov-18 11:32N 33°44' W 118°15'0 0.0
2014-Nov-18 10:32N 33°44' W 118°15'0 0.0
2014-Nov-18 09:32N 33°44' W 118°15'0 0.0
2014-Nov-18 08:32N 33°44' W 118°15'0 0.0
2014-Nov-18 07:32N 33°44' W 118°15'0 0.0
2014-Nov-18 06:32N 33°44' W 118°15'0 0.0
2014-Nov-18 05:32N 33°44' W 118°15'0 0.0
2014-Nov-18 04:32N 33°44' W 118°15'0 0.0
2014-Nov-18 03:32N 33°44' W 118°15'0 0.0
2014-Nov-18 02:32N 33°44' W 118°15'0 0.0
2014-Nov-18 01:32N 33°44' W 118°15'0 0.0
2014-Nov-18 00:32N 33°44' W 118°15'0 0.0
2014-Nov-17 23:32N 33°44' W 118°15'0 0.0
2014-Nov-17 22:17N 33°44' W 118°15'0 0.0
2014-Nov-17 21:32N 33°44' W 118°15'0 0.0
2014-Nov-17 20:32N 33°44' W 118°15'0 0.0
2014-Nov-17 19:32N 33°44' W 118°15'0 0.0
2014-Nov-17 18:32N 33°44' W 118°15'0 0.0
2014-Nov-17 17:29N 33°44' W 118°15'0 0.0
2014-Nov-17 16:17N 33°44' W 118°15'0 0.0
2014-Nov-17 15:32N 33°44' W 118°15'0 0.0
2014-Nov-17 14:32N 33°44' W 118°15'0 0.0
2014-Nov-17 13:32N 33°44' W 118°15'0 0.0
2014-Nov-17 12:32N 33°44' W 118°15'0 0.0
2014-Nov-17 11:32N 33°44' W 118°15'0 0.0
2014-Nov-17 10:32N 33°44' W 118°15'0 0.0
2014-Nov-17 09:32N 33°44' W 118°15'0 0.0
2014-Nov-17 01:17N 33°44' W 118°15'0 0.0
2014-Nov-16 14:11N 33°44' W 118°15'1 1.9
2014-Nov-16 13:33N 33°43' W 118°16'10 8.3
2014-Nov-16 12:23N 33°35' W 118°10'910.9
2014-Nov-16 11:33N 33°26' W 118°06'1111.3
2014-Nov-16 10:33N 33°15' W 118°02'1212.2
2014-Nov-16 09:33N 33°03' W 117°58'1716.8
2014-Nov-16 08:33N 32°47' W 117°53'1616.2
2014-Nov-16 07:33N 32°32' W 117°47'1716.6
2014-Nov-16 06:33N 32°16' W 117°40'  
Track history (hours):
 
Tides and Currents Weather Stations Pressure Air Temp Water Temp Dewpoint Dewpoint Depression Visibility Wind Speed Wind Dir Waves Ship Positions

APL Norway

Last reported at 2014-Nov-19 15:15 UTC. Time now 2014-Nov-26 21:24 UTC.
Position N 34°33' W 121°20'.

Length 295 m; draft 12.9 m.

Type: Cargo ship. MMSI: 636013456.

Date/timePositionNaut miles runAvg speedWind from/ knotsBaromVisibWave heightAir tempDewpointWater temp
2014-Nov-19 15:15N 34°33' W 121°20'1216.7
2014-Nov-19 14:33N 34°30' W 121°06'1615.6
2014-Nov-19 13:33N 34°25' W 120°48'2713.0
2014-Nov-19 11:29N 34°18' W 120°17'910.1
2014-Nov-19 10:33N 34°16' W 120°06'1010.2
2014-Nov-19 09:34N 34°13' W 119°54'1010.2
2014-Nov-19 08:33N 34°10' W 119°42'1010.2
2014-Nov-19 07:34N 34°08' W 119°30'1010.1
2014-Nov-19 06:34N 34°05' W 119°18'1010.1
2014-Nov-19 05:34N 34°01' W 119°07'1010.0
2014-Nov-19 04:33N 33°55' W 118°57'1010.0
2014-Nov-19 03:34N 33°51' W 118°47'1211.8
2014-Nov-19 02:34N 33°45' W 118°34'1211.9
2014-Nov-19 01:34N 33°39' W 118°22'7 6.6
2014-Nov-19 00:34N 33°43' W 118°16'1 1.1
2014-Nov-18 23:32N 33°44' W 118°15'0 0.0
2014-Nov-18 22:32N 33°44' W 118°15'0 0.0
2014-Nov-18 21:32N 33°44' W 118°15'0 0.0
2014-Nov-18 20:32N 33°44' W 118°15'0 0.0
2014-Nov-18 19:32N 33°44' W 118°15'0 0.0
2014-Nov-18 18:32N 33°44' W 118°15'0 0.0
2014-Nov-18 17:32N 33°44' W 118°15'0 0.0
2014-Nov-18 16:32N 33°44' W 118°15'0 0.0
2014-Nov-18 15:32N 33°44' W 118°15'0 0.0
2014-Nov-18 14:32N 33°44' W 118°15'0 0.0
2014-Nov-18 13:32N 33°44' W 118°15'0 0.0
2014-Nov-18 12:32N 33°44' W 118°15'0 0.0
2014-Nov-18 11:32N 33°44' W 118°15'0 0.0
2014-Nov-18 10:32N 33°44' W 118°15'0 0.0
2014-Nov-18 09:32N 33°44' W 118°15'0 0.0
2014-Nov-18 08:32N 33°44' W 118°15'0 0.0
2014-Nov-18 07:32N 33°44' W 118°15'0 0.0
2014-Nov-18 06:32N 33°44' W 118°15'0 0.0
2014-Nov-18 05:32N 33°44' W 118°15'0 0.0
2014-Nov-18 04:32N 33°44' W 118°15'0 0.0
2014-Nov-18 03:32N 33°44' W 118°15'0 0.0
2014-Nov-18 02:32N 33°44' W 118°15'0 0.0
2014-Nov-18 01:32N 33°44' W 118°15'0 0.0
2014-Nov-18 00:32N 33°44' W 118°15'0 0.0
2014-Nov-17 23:32N 33°44' W 118°15'0 0.0
2014-Nov-17 22:17N 33°44' W 118°15'0 0.0
2014-Nov-17 21:32N 33°44' W 118°15'0 0.0
2014-Nov-17 20:32N 33°44' W 118°15'0 0.0
2014-Nov-17 19:32N 33°44' W 118°15'0 0.0
2014-Nov-17 18:32N 33°44' W 118°15'0 0.0
2014-Nov-17 17:29N 33°44' W 118°15'0 0.0
2014-Nov-17 16:17N 33°44' W 118°15'0 0.0
2014-Nov-17 15:32N 33°44' W 118°15'0 0.0
2014-Nov-17 14:32N 33°44' W 118°15'0 0.0
2014-Nov-17 13:32N 33°44' W 118°15'0 0.0
2014-Nov-17 12:32N 33°44' W 118°15'0 0.0
2014-Nov-17 11:32N 33°44' W 118°15'0 0.0
2014-Nov-17 10:32N 33°44' W 118°15'0 0.0
2014-Nov-17 09:32N 33°44' W 118°15'0 0.0
2014-Nov-17 01:17N 33°44' W 118°15'0 0.0
2014-Nov-16 14:11N 33°44' W 118°15'1 1.9
2014-Nov-16 13:33N 33°43' W 118°16'10 8.3
2014-Nov-16 12:23N 33°35' W 118°10'910.9
2014-Nov-16 11:33N 33°26' W 118°06'1111.3
2014-Nov-16 10:33N 33°15' W 118°02'1212.2
2014-Nov-16 09:33N 33°03' W 117°58'1716.8
2014-Nov-16 08:33N 32°47' W 117°53'1616.2
2014-Nov-16 07:33N 32°32' W 117°47'1716.6
2014-Nov-16 06:33N 32°16' W 117°40'  

Dump ship's entire track history